Time;durP1;ratioP1;P1;durP2;ratioP2;P2;SDS_P1;SDS_P2;PMS_P1;PMS_P2;Temp;Humidity;BMP_temperature;BMP_pressure;BME280_temperature;BME280_humidity;BME280_pressure;Samples;Min_cycle;Max_cycle;Signal;HPM_P1;HPM_P2
2023/08/15 00:01:21;;;;;;;;;3.67;3.00;;;;;24.91;61.03;100570.88;5084994;28;45233;-83
2023/08/15 00:03:46;;;;;;;;;4.00;4.00;;;;;24.88;61.34;100571.00;5069041;28;45330;-83
2023/08/15 00:06:13;;;;;;;;;3.00;3.00;;;;;24.87;61.45;100561.97;5086358;28;47700;-83
2023/08/15 00:08:40;;;;;;;;;4.00;4.00;;;;;24.88;61.26;100571.00;5088124;27;45311;-82
2023/08/15 00:11:05;;;;;;;;;4.67;3.67;;;;;24.83;61.16;100571.25;5102381;27;44861;-83
2023/08/15 00:13:30;;;;;;;;;3.50;3.50;;;;;24.82;61.68;100572.19;5087557;28;45331;-83
2023/08/15 00:15:56;;;;;;;;;4.67;4.00;;;;;24.75;61.61;100568.88;5087843;27;45199;-83
2023/08/15 00:18:21;;;;;;;;;5.00;3.00;;;;;24.75;61.82;100568.88;5103782;27;44714;-85
2023/08/15 00:20:48;;;;;;;;;3.00;3.00;;;;;24.78;62.12;100565.13;5087671;28;44774;-83
2023/08/15 00:23:14;;;;;;;;;5.67;5.33;;;;;24.67;62.06;100559.34;5103903;27;44875;-83
2023/08/15 00:25:39;;;;;;;;;6.00;5.67;;;;;24.62;62.27;100553.22;5087191;27;45235;-83
2023/08/15 00:28:05;;;;;;;;;5.00;5.00;;;;;24.61;61.97;100568.66;5102269;27;45190;-83
2023/08/15 00:30:32;;;;;;;;;2.50;2.50;;;;;24.58;62.25;100567.91;5085380;28;45150;-83
2023/08/15 00:36:26;;;;;;;;;5.50;4.50;;;;;24.34;63.22;100559.94;5108048;27;45468;-83
2023/08/15 00:38:52;;;;;;;;;2.00;1.00;;;;;24.25;62.79;100566.66;5109512;27;44852;-82
2023/08/15 00:41:18;;;;;;;;;4.00;4.00;;;;;24.16;63.28;100562.53;5107673;27;44871;-82
2023/08/15 00:43:43;;;;;;;;;2.00;2.00;;;;;24.11;63.63;100553.69;5089198;27;44867;-82
2023/08/15 00:46:10;;;;;;;;;5.00;4.67;;;;;24.21;64.74;100569.59;5107383;27;45192;-83
2023/08/15 00:48:36;;;;;;;;;4.00;4.00;;;;;24.07;64.25;100570.22;5106627;27;45296;-82
2023/08/15 00:51:02;;;;;;;;;3.67;3.00;;;;;23.99;63.91;100575.09;5105141;27;44995;-82
2023/08/15 00:53:30;;;;;;;;;4.00;4.00;;;;;24.02;64.48;100569.53;5104956;27;45440;-82
2023/08/15 00:55:57;;;;;;;;;3.67;3.67;;;;;23.95;64.24;100563.47;5102150;27;47150;-82
2023/08/15 00:58:24;;;;;;;;;4.00;4.00;;;;;23.95;64.61;100577.94;5086971;27;45313;-82
2023/08/15 01:00:53;;;;;;;;;4.00;4.00;;;;;23.90;65.28;100576.41;5106216;27;44703;-82
2023/08/15 01:03:19;;;;;;;;;4.00;3.00;;;;;23.72;65.27;100564.47;5104107;27;44891;-82
2023/08/15 01:05:48;;;;;;;;;6.67;6.67;;;;;23.71;65.04;100571.75;5104777;27;45150;-82
2023/08/15 01:08:15;;;;;;;;;5.00;5.00;;;;;23.68;65.46;100563.72;5104332;27;45495;-82
2023/08/15 01:10:42;;;;;;;;;6.00;5.00;;;;;23.75;65.32;100577.91;5105305;27;44847;-82
2023/08/15 01:13:25;;;;;;;;;4.67;4.67;;;;;23.84;65.59;100568.53;5088354;27;44907;-82
2023/08/15 01:15:52;;;;;;;;;6.00;6.00;;;;;23.72;65.90;100561.75;5105338;27;45675;-82
2023/08/15 01:18:29;;;;;;;;;4.00;4.00;;;;;23.82;65.64;100567.72;5108588;27;44788;-82
2023/08/15 01:20:56;;;;;;;;;3.50;3.50;;;;;23.86;66.29;100580.19;5104753;27;45372;-82
2023/08/15 01:23:30;;;;;;;;;2.75;2.75;;;;;23.80;65.81;100578.63;5087673;27;44892;-84
2023/08/15 01:25:56;;;;;;;;;6.00;4.25;;;;;23.76;66.44;100586.00;5085726;27;46804;-82
2023/08/15 01:28:21;;;;;;;;;5.00;5.00;;;;;23.81;66.29;100576.78;5105106;27;44783;-82
2023/08/15 01:30:56;;;;;;;;;3.50;3.50;;;;;23.92;65.79;100588.97;5104171;27;45250;-82
2023/08/15 01:33:53;;;;;;;;;4.33;3.67;;;;;24.03;65.46;100588.47;5105078;27;44963;-82
2023/08/15 01:36:28;;;;;;;;;4.00;4.00;;;;;24.05;65.65;100592.00;5085328;27;45228;-82
2023/08/15 01:39:02;;;;;;;;;3.25;3.25;;;;;24.11;65.54;100588.13;5090475;27;44788;-82
2023/08/15 01:41:31;;;;;;;;;5.00;5.00;;;;;24.07;65.91;100589.22;5102564;27;44873;-82
2023/08/15 01:43:58;;;;;;;;;3.00;3.00;;;;;24.02;65.88;100592.16;5085358;27;44891;-82
2023/08/15 01:46:25;;;;;;;;;3.00;3.00;;;;;24.12;65.96;100600.78;5103558;27;45628;-83
2023/08/15 01:48:50;;;;;;;;;5.75;4.50;;;;;24.06;65.34;100596.50;5102982;27;44865;-82
2023/08/15 01:51:16;;;;;;;;;5.00;5.00;;;;;24.08;65.30;100602.75;5103407;27;44757;-82
2023/08/15 01:53:41;;;;;;;;;4.50;4.50;;;;;24.08;65.32;100608.19;5102006;27;45444;-82
2023/08/15 01:56:07;;;;;;;;;5.00;4.50;;;;;24.09;64.82;100620.81;5103927;27;45093;-82
2023/08/15 01:59:28;;;;;;;;;4.00;4.00;;;;;24.27;64.78;100626.38;5104315;27;44766;-83
2023/08/15 02:01:53;;;;;;;;;5.33;4.00;;;;;24.11;64.81;100623.47;5108656;27;44925;-82
2023/08/15 02:04:19;;;;;;;;;3.67;3.00;;;;;24.09;64.77;100619.94;5107764;27;44895;-82
2023/08/15 02:06:44;;;;;;;;;5.67;5.00;;;;;24.12;65.19;100630.69;5104012;27;47040;-82
2023/08/15 02:09:10;;;;;;;;;5.00;4.00;;;;;24.13;64.86;100627.88;5104463;27;44873;-83
2023/08/15 02:12:28;;;;;;;;;4.67;3.33;;;;;24.28;64.71;100625.41;5108301;27;45074;-82
2023/08/15 02:14:53;;;;;;;;;4.00;4.00;;;;;24.10;64.94;100622.59;5087941;27;44869;-82
2023/08/15 02:17:19;;;;;;;;;4.33;4.00;;;;;24.11;64.59;100618.03;5105756;27;46865;-82
2023/08/15 02:19:44;;;;;;;;;3.33;3.33;;;;;24.07;64.97;100610.97;5088909;27;44805;-82
2023/08/15 02:22:09;;;;;;;;;4.33;3.67;;;;;24.06;64.89;100626.38;5088742;27;44892;-81
2023/08/15 02:24:35;;;;;;;;;4.00;4.00;;;;;23.96;65.18;100622.31;5107015;27;44783;-82
2023/08/15 02:27:00;;;;;;;;;4.00;4.00;;;;;23.88;64.81;100628.06;5106082;27;47242;-82
2023/08/15 02:29:26;;;;;;;;;6.75;4.00;;;;;23.86;65.03;100627.25;5107477;27;44827;-82
2023/08/15 02:31:51;;;;;;;;;5.33;4.00;;;;;23.82;65.28;100628.34;5105923;27;44877;-81
2023/08/15 02:34:18;;;;;;;;;5.00;4.00;;;;;23.86;65.68;100645.38;5104831;27;45387;-83
2023/08/15 02:37:26;;;;;;;;;3.75;3.75;;;;;24.01;65.52;100639.28;5100689;27;47345;-82
2023/08/15 02:39:52;;;;;;;;;5.75;4.50;;;;;23.88;65.00;100628.06;5085736;28;45091;-82
2023/08/15 02:42:17;;;;;;;;;4.00;4.00;;;;;23.91;65.31;100635.19;5086815;28;45196;-82
2023/08/15 02:44:43;;;;;;;;;4.00;4.00;;;;;23.88;65.34;100644.38;5088417;28;45264;-82
2023/08/15 02:47:08;;;;;;;;;5.67;5.00;;;;;23.89;65.19;100628.94;5083979;28;47267;-82
2023/08/15 02:50:27;;;;;;;;;5.00;4.75;;;;;24.02;65.12;100624.75;5084041;28;45356;-81
2023/08/15 02:52:53;;;;;;;;;5.50;3.25;;;;;23.79;65.28;100628.44;5084221;28;45365;-81
2023/08/15 02:55:18;;;;;;;;;3.33;3.00;;;;;23.71;65.19;100630.56;5085790;28;44926;-81
2023/08/15 02:57:44;;;;;;;;;5.00;3.00;;;;;23.67;65.58;100632.56;5100900;27;47403;-83
2023/08/15 03:00:10;;;;;;;;;4.00;2.00;;;;;23.62;65.81;100629.13;5101198;27;45468;-83
2023/08/15 03:02:39;;;;;;;;;5.33;5.33;;;;;23.72;65.89;100627.81;5100986;27;44979;-81
2023/08/15 03:05:04;;;;;;;;;3.33;3.33;;;;;23.61;66.04;100630.06;5084921;27;44784;-82
2023/08/15 03:07:29;;;;;;;;;5.00;5.00;;;;;23.57;66.34;100631.16;5099680;27;47337;-82
2023/08/15 03:09:55;;;;;;;;;5.33;3.67;;;;;23.55;66.10;100635.75;5086899;27;45414;-82
2023/08/15 03:12:20;;;;;;;;;5.25;5.25;;;;;23.49;66.36;100636.91;5088271;27;44897;-81
2023/08/15 03:14:45;;;;;;;;;4.75;4.75;;;;;23.46;66.61;100630.72;5086553;27;44804;-81
2023/08/15 03:17:11;;;;;;;;;4.00;4.00;;;;;23.44;66.86;100629.91;5084828;28;47420;-82
2023/08/15 03:19:37;;;;;;;;;4.75;4.75;;;;;23.42;66.50;100627.25;5102019;27;45420;-82
2023/08/15 03:22:06;;;;;;;;;5.00;4.00;;;;;23.36;67.06;100617.53;5102324;27;45754;-82
2023/08/15 03:24:31;;;;;;;;;4.25;4.25;;;;;23.33;67.32;100623.09;5088217;27;44782;-81
2023/08/15 03:27:00;;;;;;;;;4.00;4.00;;;;;23.34;67.01;100627.56;5087183;28;45144;-83
2023/08/15 03:29:25;;;;;;;;;3.50;3.50;;;;;23.26;67.81;100629.69;5087608;28;45356;-82
2023/08/15 03:31:55;;;;;;;;;3.50;3.50;;;;;23.28;67.76;100622.38;5103660;27;44856;-82
2023/08/15 03:34:21;;;;;;;;;5.00;4.67;;;;;23.19;67.62;100638.16;5085834;27;45447;-82
2023/08/15 03:36:46;;;;;;;;;4.00;4.00;;;;;23.11;68.55;100646.63;5101340;27;45189;-81
2023/08/15 03:39:12;;;;;;;;;3.00;3.00;;;;;23.05;68.84;100642.31;5104569;27;45228;-82
2023/08/15 03:41:37;;;;;;;;;4.33;4.33;;;;;23.05;68.61;100658.59;5106260;27;45678;-81
2023/08/15 03:44:04;;;;;;;;;3.25;3.25;;;;;23.01;68.83;100661.44;5107666;27;44793;-81
2023/08/15 03:46:29;;;;;;;;;3.00;3.00;;;;;23.00;69.14;100670.50;5107934;27;45262;-81
2023/08/15 03:48:54;;;;;;;;;5.00;5.00;;;;;22.96;68.81;100665.19;5106602;27;44835;-81
2023/08/15 03:51:20;;;;;;;;;4.75;4.75;;;;;23.00;68.65;100670.50;5105823;27;45171;-82
2023/08/15 03:53:45;;;;;;;;;3.00;3.00;;;;;22.98;68.79;100667.84;5106810;27;45275;-81
2023/08/15 03:56:11;;;;;;;;;4.00;4.00;;;;;22.91;69.18;100672.63;5090401;27;46917;-82
2023/08/15 03:58:36;;;;;;;;;5.67;5.67;;;;;22.81;69.10;100652.25;5109145;27;44868;-81
2023/08/15 04:01:01;;;;;;;;;1.00;1.00;;;;;22.87;69.06;100679.13;5108030;27;44874;-81
2023/08/15 04:03:27;;;;;;;;;3.50;3.25;;;;;22.83;69.28;100679.31;5109191;27;44850;-81
2023/08/15 04:05:52;;;;;;;;;3.67;3.67;;;;;22.80;69.38;100685.69;5107524;27;46606;-82
2023/08/15 04:08:17;;;;;;;;;4.67;4.67;;;;;22.81;69.22;100698.34;5104986;27;44861;-83
2023/08/15 04:10:47;;;;;;;;;5.33;4.33;;;;;22.85;69.30;100691.84;5105006;27;44792;-81
2023/08/15 04:13:13;;;;;;;;;4.75;4.75;;;;;22.79;69.50;100707.47;5107977;27;44851;-81
2023/08/15 04:15:39;;;;;;;;;5.00;5.00;;;;;22.77;69.44;100707.53;5107276;27;44994;-82
2023/08/15 04:18:07;;;;;;;;;4.33;4.33;;;;;22.80;70.02;100707.41;5088991;27;44786;-82
2023/08/15 04:20:37;;;;;;;;;6.75;6.75;;;;;22.83;69.66;100710.00;5106815;27;45566;-82
2023/08/15 04:23:02;;;;;;;;;5.50;5.50;;;;;22.70;69.72;100711.41;5105357;27;44815;-83
2023/08/15 04:25:28;;;;;;;;;5.00;4.00;;;;;22.69;69.86;100717.78;5105845;27;45258;-83
2023/08/15 04:27:53;;;;;;;;;5.00;5.00;;;;;22.69;69.94;100728.63;5106822;27;45192;-83
2023/08/15 04:30:20;;;;;;;;;4.00;4.00;;;;;22.68;70.03;100738.59;5089023;27;44816;-82
2023/08/15 04:32:46;;;;;;;;;5.00;4.00;;;;;22.64;70.38;100736.91;5107250;27;44844;-82
2023/08/15 04:35:12;;;;;;;;;5.75;5.75;;;;;22.62;70.33;100727.94;5088728;27;47155;-82
2023/08/15 04:37:38;;;;;;;;;3.00;3.00;;;;;22.61;70.65;100728.88;5106229;27;44933;-82
2023/08/15 04:40:03;;;;;;;;;8.33;4.33;;;;;22.63;70.78;100715.28;5107215;27;45181;-82
2023/08/15 04:42:29;;;;;;;;;7.00;6.33;;;;;22.57;70.80;100725.41;5087943;27;44914;-82
2023/08/15 04:44:54;;;;;;;;;4.00;4.00;;;;;22.57;70.72;100722.69;5090241;27;47179;-82
2023/08/15 04:47:23;;;;;;;;;6.75;5.00;;;;;22.56;71.07;100730.88;5108648;27;44907;-81
2023/08/15 04:49:48;;;;;;;;;3.75;3.75;;;;;22.55;71.20;100729.13;5104331;27;44706;-81
2023/08/15 04:52:15;;;;;;;;;3.50;3.50;;;;;22.62;71.41;100730.66;5103907;27;44928;-83
2023/08/15 04:54:40;;;;;;;;;4.00;3.50;;;;;22.53;71.38;100721.03;5104216;27;45384;-82
2023/08/15 04:57:06;;;;;;;;;4.25;4.25;;;;;22.55;71.54;100727.28;5103107;27;44821;-81
2023/08/15 04:59:31;;;;;;;;;5.00;5.00;;;;;22.57;71.60;100733.53;5105368;27;44883;-82
2023/08/15 05:01:56;;;;;;;;;5.00;5.00;;;;;22.52;71.79;100729.19;5105142;27;45287;-84
2023/08/15 05:07:44;;;;;;;;;4.00;3.50;;;;;22.52;71.63;100740.97;5107612;27;44720;-82
2023/08/15 05:10:09;;;;;;;;;6.00;5.00;;;;;22.56;71.89;100750.75;5105910;27;44750;-82
2023/08/15 05:12:35;;;;;;;;;4.50;3.25;;;;;22.57;71.86;100752.50;5106262;27;44866;-81
2023/08/15 05:15:00;;;;;;;;;4.33;3.33;;;;;22.59;71.90;100749.75;5105070;27;47087;-81
2023/08/15 05:20:48;;;;;;;;;4.75;4.75;;;;;22.68;72.11;100756.66;5107180;27;44844;-82
2023/08/15 05:23:14;;;;;;;;;4.00;4.00;;;;;22.69;71.64;100759.31;5088420;27;44888;-82
2023/08/15 05:25:41;;;;;;;;;2.67;2.00;;;;;22.68;71.90;100757.56;5088518;27;47411;-82
2023/08/15 05:28:07;;;;;;;;;4.00;4.00;;;;;22.70;71.80;100754.78;5104679;27;45329;-82
2023/08/15 05:30:32;;;;;;;;;2.33;2.33;;;;;22.72;71.85;100756.50;5105132;27;45297;-81
2023/08/15 05:32:59;;;;;;;;;4.50;4.50;;;;;22.78;71.87;100758.09;5089067;27;45265;-81
2023/08/15 05:35:31;;;;;;;;;4.00;4.00;;;;;22.90;71.44;100752.22;5083656;27;47111;-81
2023/08/15 05:37:56;;;;;;;;;3.00;3.00;;;;;22.78;71.38;100752.66;5082601;27;44979;-82
2023/08/15 05:40:22;;;;;;;;;5.00;4.00;;;;;22.83;71.36;100747.09;5083785;27;44813;-82
2023/08/15 05:42:48;;;;;;;;;5.00;4.00;;;;;22.89;71.37;100753.16;5100279;27;45421;-81
2023/08/15 05:45:13;;;;;;;;;6.00;5.00;;;;;22.89;71.76;100755.00;5100937;27;47685;-81
2023/08/15 05:47:39;;;;;;;;;5.67;5.67;;;;;22.90;71.18;100751.34;5102609;27;45396;-81
2023/08/15 05:50:05;;;;;;;;;4.33;4.33;;;;;22.89;71.96;100768.56;5103403;27;44863;-82
2023/08/15 05:52:30;;;;;;;;;5.00;4.00;;;;;22.83;71.45;100756.09;5103557;27;45031;-82
2023/08/15 05:54:57;;;;;;;;;4.00;4.00;;;;;23.02;71.70;100767.19;5104725;27;44919;-82
2023/08/15 05:57:24;;;;;;;;;5.00;5.00;;;;;23.06;71.25;100773.38;5104218;27;45399;-82
2023/08/15 05:59:50;;;;;;;;;5.00;5.00;;;;;23.01;71.49;100775.38;5105830;27;44783;-81
2023/08/15 06:02:15;;;;;;;;;6.00;4.25;;;;;23.05;71.72;100777.94;5103123;27;44808;-81
2023/08/15 06:04:41;;;;;;;;;6.00;5.00;;;;;23.11;71.37;100787.69;5103063;27;45278;-82
2023/08/15 06:07:07;;;;;;;;;6.00;4.33;;;;;23.21;71.87;100786.38;5104836;27;45554;-82
2023/08/15 06:09:33;;;;;;;;;6.50;3.00;;;;;23.14;71.54;100779.41;5102236;27;44906;-82
2023/08/15 06:11:58;;;;;;;;;6.33;6.33;;;;;23.21;71.92;100794.53;5103167;27;45515;-82
2023/08/15 06:14:25;;;;;;;;;7.50;5.25;;;;;23.21;71.15;100799.97;5102711;27;45319;-81
2023/08/15 06:16:57;;;;;;;;;5.75;5.75;;;;;23.24;71.82;100805.25;5103360;27;44811;-82
2023/08/15 06:19:24;;;;;;;;;5.00;5.00;;;;;23.24;72.34;100801.66;5084316;27;44840;-83
2023/08/15 06:21:49;;;;;;;;;5.00;5.00;;;;;23.21;72.12;100815.31;5102995;27;45768;-82
2023/08/15 06:24:15;;;;;;;;;4.00;4.00;;;;;23.16;71.95;100819.09;5100733;27;47189;-81
2023/08/15 06:26:41;;;;;;;;;4.00;4.00;;;;;23.24;72.10;100815.22;5101794;27;44860;-82
2023/08/15 06:29:07;;;;;;;;;6.50;6.00;;;;;23.24;72.08;100816.09;5102030;27;45405;-82
2023/08/15 06:31:34;;;;;;;;;4.00;4.00;;;;;23.27;72.30;100818.72;5086194;27;44959;-81
2023/08/15 06:34:01;;;;;;;;;3.25;2.75;;;;;23.33;71.95;100823.91;5105922;27;45473;-81
2023/08/15 06:36:26;;;;;;;;;3.25;3.25;;;;;23.33;72.02;100837.47;5105545;27;44701;-82
2023/08/15 06:38:52;;;;;;;;;5.75;5.75;;;;;23.39;71.73;100830.03;5103545;27;44830;-82
2023/08/15 06:41:18;;;;;;;;;5.00;3.50;;;;;23.49;72.29;100834.16;5083857;27;45355;-82
2023/08/15 06:43:44;;;;;;;;;5.75;4.50;;;;;23.47;72.21;100846.91;5099229;27;47291;-82
2023/08/15 06:46:10;;;;;;;;;5.00;5.00;;;;;23.49;71.60;100823.31;5099300;27;45029;-82
2023/08/15 06:48:35;;;;;;;;;6.00;6.00;;;;;23.64;71.53;100835.44;5101964;27;44815;-83
2023/08/15 06:51:01;;;;;;;;;4.75;4.00;;;;;23.80;71.48;100846.63;5101751;27;45350;-83
2023/08/15 06:53:26;;;;;;;;;6.33;5.67;;;;;23.74;71.09;100839.56;5100965;27;45460;-82
2023/08/15 06:55:52;;;;;;;;;6.00;3.67;;;;;23.79;70.83;100843.00;5101534;27;44764;-83
2023/08/15 06:58:20;;;;;;;;;0.75;0.75;;;;;23.99;71.27;100847.63;5101006;27;44906;-82
2023/08/15 07:00:46;;;;;;;;;4.67;4.67;;;;;24.02;70.08;100857.53;5082664;27;44890;-82
2023/08/15 07:03:13;;;;;;;;;6.00;6.00;;;;;24.11;70.76;100852.56;5104750;27;45137;-82
2023/08/15 07:05:42;;;;;;;;;3.33;3.33;;;;;24.23;70.71;100861.19;5106024;27;45586;-81
2023/08/15 07:08:09;;;;;;;;;3.50;3.00;;;;;24.24;70.34;100858.41;5106038;27;44820;-82
2023/08/15 07:10:35;;;;;;;;;5.75;5.50;;;;;24.34;69.84;100848.06;5107406;27;44789;-81
2023/08/15 07:13:01;;;;;;;;;6.75;4.25;;;;;24.41;69.16;100860.44;5106802;27;45320;-82
2023/08/15 07:15:27;;;;;;;;;3.50;2.50;;;;;24.48;68.85;100864.66;5104998;27;44835;-82
2023/08/15 07:17:52;;;;;;;;;4.00;4.00;;;;;24.58;69.01;100850.69;5106247;27;44789;-82
2023/08/15 07:20:18;;;;;;;;;7.00;5.25;;;;;24.66;68.59;100852.16;5086866;27;44904;-82
2023/08/15 07:22:43;;;;;;;;;6.25;5.50;;;;;24.64;67.73;100845.00;5105016;27;47214;-81
2023/08/15 07:25:10;;;;;;;;;4.00;4.00;;;;;24.54;68.29;100853.56;5108025;27;45382;-82
2023/08/15 07:27:36;;;;;;;;;4.00;4.00;;;;;24.58;68.26;100867.03;5106807;27;44889;-81
2023/08/15 07:33:23;;;;;;;;;3.75;3.50;;;;;24.90;68.20;100866.50;5105983;27;45260;-82
2023/08/15 07:35:48;;;;;;;;;5.75;5.25;;;;;25.09;67.92;100868.44;5105200;27;45386;-83
2023/08/15 07:38:14;;;;;;;;;5.00;4.00;;;;;25.31;67.69;100872.00;5104879;27;44894;-82
2023/08/15 07:40:43;;;;;;;;;3.25;3.25;;;;;25.50;66.64;100876.59;5104144;27;44883;-82
2023/08/15 07:43:09;;;;;;;;;6.50;4.25;;;;;25.64;66.26;100881.41;5086637;27;47381;-81
2023/08/15 07:45:35;;;;;;;;;3.75;3.75;;;;;25.63;65.74;100883.28;5104457;27;44786;-81
2023/08/15 07:48:00;;;;;;;;;5.00;3.25;;;;;25.67;65.63;100882.16;5086387;27;44896;-82
2023/08/15 07:50:28;;;;;;;;;4.25;4.25;;;;;25.87;65.73;100883.94;5105219;27;44867;-82
2023/08/15 07:52:54;;;;;;;;;5.00;4.75;;;;;25.96;65.43;100882.66;5088735;27;46855;-81
2023/08/15 07:55:21;;;;;;;;;6.25;5.00;;;;;26.02;64.48;100879.63;5088477;27;45277;-81
2023/08/15 07:57:48;;;;;;;;;4.00;4.00;;;;;25.97;63.88;100880.81;5087923;27;44766;-81
2023/08/15 08:00:14;;;;;;;;;8.25;4.50;;;;;25.83;63.95;100881.44;5106067;27;44793;-82
2023/08/15 08:02:41;;;;;;;;;3.25;3.25;;;;;25.75;64.45;100879.06;5087327;27;46852;-82
2023/08/15 08:05:09;;;;;;;;;4.50;2.75;;;;;25.67;64.24;100882.16;5105237;27;45201;-82
2023/08/15 08:07:34;;;;;;;;;5.50;5.00;;;;;25.64;64.50;100874.13;5104901;27;44764;-82
2023/08/15 08:10:00;;;;;;;;;3.25;3.25;;;;;25.65;64.75;100873.19;5086763;27;45439;-82
2023/08/15 08:12:30;;;;;;;;;4.00;3.50;;;;;25.79;64.70;100861.63;5104699;27;46871;-82
2023/08/15 08:14:55;;;;;;;;;5.00;4.33;;;;;25.91;64.81;100874.69;5088097;27;44748;-83
2023/08/15 08:17:22;;;;;;;;;4.75;3.00;;;;;26.14;64.07;100870.00;5088441;27;44735;-82
2023/08/15 08:19:49;;;;;;;;;5.75;4.50;;;;;26.37;63.75;100871.56;5089567;27;44954;-82
2023/08/15 08:22:14;;;;;;;;;4.75;4.75;;;;;26.38;63.07;100875.16;5073408;27;47361;-82
2023/08/15 08:24:39;;;;;;;;;5.00;5.00;;;;;26.54;63.29;100871.63;5088729;27;44902;-82
2023/08/15 08:27:05;;;;;;;;;7.25;5.25;;;;;26.69;62.89;100871.81;5107312;27;44937;-82
2023/08/15 08:29:30;;;;;;;;;4.67;3.33;;;;;26.80;62.41;100863.06;5105062;27;44878;-82
2023/08/15 08:35:18;;;;;;;;;4.25;4.25;;;;;26.77;61.19;100861.41;5104031;27;44855;-82
2023/08/15 08:37:45;;;;;;;;;2.50;2.50;;;;;26.87;61.27;100851.78;5084447;27;44879;-81
2023/08/15 08:40:12;;;;;;;;;6.33;4.33;;;;;27.02;61.56;100862.84;5103959;27;44863;-81
2023/08/15 08:42:40;;;;;;;;;5.00;5.00;;;;;27.12;60.85;100847.72;5102981;27;47060;-81
2023/08/15 08:45:07;;;;;;;;;4.75;4.75;;;;;27.22;60.83;100853.59;5104461;27;45306;-82
2023/08/15 08:47:34;;;;;;;;;3.75;3.75;;;;;27.17;59.70;100855.66;5104920;27;44883;-82
2023/08/15 08:50:00;;;;;;;;;4.00;4.00;;;;;26.93;60.70;100859.63;5083709;27;45108;-82
2023/08/15 08:52:27;;;;;;;;;3.25;3.25;;;;;26.98;60.97;100856.66;5102104;27;45200;-81
2023/08/15 08:54:52;;;;;;;;;7.00;5.00;;;;;27.05;60.77;100859.97;5101496;27;45330;-82
2023/08/15 08:57:19;;;;;;;;;5.67;5.67;;;;;27.19;60.34;100854.66;5103422;27;44880;-82
2023/08/15 08:59:45;;;;;;;;;4.00;4.00;;;;;27.40;59.47;100868.13;5103941;27;45345;-84
2023/08/15 09:02:20;;;;;;;;;6.00;3.33;;;;;27.61;59.02;100861.50;5086742;27;45238;-82
2023/08/15 09:04:47;;;;;;;;;4.67;3.67;;;;;27.63;58.88;100853.19;5104259;27;44900;-82
2023/08/15 09:07:13;;;;;;;;;5.00;4.67;;;;;27.58;58.75;100858.06;5103723;27;45288;-82
2023/08/15 09:09:38;;;;;;;;;2.00;2.00;;;;;27.52;58.49;100857.41;5105060;27;45400;-82
2023/08/15 09:12:06;;;;;;;;;3.00;3.00;;;;;27.63;58.44;100855.94;5103952;27;47475;-82
2023/08/15 09:14:31;;;;;;;;;3.33;3.33;;;;;27.82;57.71;100864.00;5104859;27;45296;-82
2023/08/15 09:16:57;;;;;;;;;3.75;3.25;;;;;27.90;57.61;100867.22;5104908;27;45483;-82
2023/08/15 09:19:23;;;;;;;;;3.50;3.50;;;;;27.85;56.91;100861.97;5086853;27;44831;-82
2023/08/15 09:21:49;;;;;;;;;2.25;2.25;;;;;27.87;57.44;100867.38;5104883;27;45352;-83
2023/08/15 09:27:38;;;;;;;;;2.25;2.25;;;;;28.01;57.34;100872.06;5106074;27;44838;-82
2023/08/15 09:30:08;;;;;;;;;6.00;4.75;;;;;27.98;57.36;100864.94;5103451;27;44904;-82
2023/08/15 09:32:33;;;;;;;;;3.25;2.00;;;;;27.95;56.72;100876.03;5101857;27;47197;-82
2023/08/15 09:34:59;;;;;;;;;5.00;4.75;;;;;27.93;56.19;100872.50;5085333;27;44793;-82
2023/08/15 09:37:25;;;;;;;;;3.75;3.25;;;;;27.88;56.52;100877.38;5103858;27;44847;-82
2023/08/15 09:39:50;;;;;;;;;5.25;5.00;;;;;27.89;56.72;100877.25;5086269;27;44918;-82
2023/08/15 09:42:22;;;;;;;;;5.50;3.25;;;;;27.90;56.34;100869.97;5103978;27;45153;-82
2023/08/15 09:44:49;;;;;;;;;5.00;4.00;;;;;27.88;56.01;100880.97;5086885;27;45343;-81
2023/08/15 09:47:17;;;;;;;;;3.50;3.00;;;;;27.85;55.62;100881.09;5103342;27;44762;-82
2023/08/15 09:49:44;;;;;;;;;4.75;4.75;;;;;27.79;55.98;100878.72;5085363;27;44831;-82
2023/08/15 09:52:10;;;;;;;;;3.00;2.50;;;;;27.74;55.09;100870.78;5101837;27;47235;-82
2023/08/15 09:54:37;;;;;;;;;3.50;3.25;;;;;27.77;55.66;100874.31;5102968;27;44800;-82
2023/08/15 09:57:02;;;;;;;;;2.25;2.25;;;;;27.80;55.74;100872.28;5102933;27;45475;-82
2023/08/15 09:59:28;;;;;;;;;2.00;1.25;;;;;27.89;55.44;100871.78;5085218;27;45327;-82
2023/08/15 10:02:28;;;;;;;;;2.75;2.75;;;;;28.19;55.65;100867.41;5102545;27;45402;-82
2023/08/15 10:05:02;;;;;;;;;3.50;3.50;;;;;28.23;55.12;100874.47;5103835;27;44829;-81
2023/08/15 10:07:31;;;;;;;;;2.00;2.00;;;;;28.12;55.10;100873.22;5085128;27;45366;-81
2023/08/15 10:09:58;;;;;;;;;1.00;1.00;;;;;28.24;55.42;100876.25;5084367;27;44998;-82
2023/08/15 10:12:27;;;;;;;;;4.00;2.25;;;;;28.51;55.13;100869.16;5083730;27;46964;-81
2023/08/15 10:14:58;;;;;;;;;1.25;1.25;;;;;28.75;54.25;100863.22;5101840;27;45420;-81
2023/08/15 10:17:28;;;;;;;;;2.00;2.00;;;;;29.03;54.39;100876.13;5103503;27;44854;-82
2023/08/15 10:19:54;;;;;;;;;5.25;4.00;;;;;29.06;53.70;100878.66;5100777;27;44846;-82
2023/08/15 10:22:22;;;;;;;;;2.50;2.25;;;;;29.13;53.94;100868.25;5100394;27;47092;-82
2023/08/15 10:24:49;;;;;;;;;4.00;3.00;;;;;29.31;53.41;100875.31;5101116;27;45710;-82
2023/08/15 10:27:24;;;;;;;;;3.75;3.50;;;;;29.33;53.17;100875.25;5103469;27;45011;-82
2023/08/15 10:29:58;;;;;;;;;2.75;2.75;;;;;29.37;52.88;100874.06;5085119;27;45440;-82
2023/08/15 10:32:28;;;;;;;;;4.00;4.00;;;;;29.40;52.37;100876.59;5103442;27;45403;-82
2023/08/15 10:35:05;;;;;;;;;2.50;2.50;;;;;29.26;51.90;100877.47;5103878;27;45273;-82
2023/08/15 10:37:36;;;;;;;;;2.75;2.75;;;;;29.06;52.55;100867.69;5088192;27;45376;-82
2023/08/15 10:40:10;;;;;;;;;2.67;2.67;;;;;28.94;52.53;100876.66;5106443;27;44753;-82
2023/08/15 10:43:02;;;;;;;;;4.00;4.00;;;;;29.02;52.53;100873.47;5105552;27;47333;-82
2023/08/15 10:45:35;;;;;;;;;3.00;3.00;;;;;29.03;52.51;100883.47;5079904;27;45261;-81
2023/08/15 10:48:00;;;;;;;;;6.25;6.25;;;;;28.99;52.78;100881.88;5105417;27;44790;-83
2023/08/15 10:50:26;;;;;;;;;2.33;2.33;;;;;29.14;52.35;100880.09;5087802;27;44756;-82
2023/08/15 10:53:01;;;;;;;;;2.67;2.67;;;;;29.38;52.32;100877.69;5107607;27;47275;-82
2023/08/15 10:55:29;;;;;;;;;3.50;2.75;;;;;29.50;52.64;100890.59;5104823;27;46111;-82
2023/08/15 10:57:58;;;;;;;;;2.00;2.00;;;;;29.33;50.71;100877.97;5103857;27;44785;-82
2023/08/15 11:00:25;;;;;;;;;0.75;0.75;;;;;29.17;51.17;100888.09;5104931;27;44903;-82
2023/08/15 11:02:51;;;;;;;;;2.25;2.25;;;;;29.12;51.70;100886.53;5087640;27;45417;-82
2023/08/15 11:05:20;;;;;;;;;2.75;2.00;;;;;29.30;51.30;100887.25;5105862;27;45846;-82
2023/08/15 11:07:45;;;;;;;;;2.75;2.75;;;;;29.41;51.01;100880.22;5105745;27;44799;-83
2023/08/15 11:10:14;;;;;;;;;2.25;2.00;;;;;29.37;50.86;100881.38;5087477;27;45267;-82
2023/08/15 11:12:50;;;;;;;;;2.00;2.00;;;;;29.07;50.12;100871.34;5104725;27;47095;-82
2023/08/15 11:15:16;;;;;;;;;1.50;1.50;;;;;28.75;50.29;100881.50;5087510;27;44854;-82
2023/08/15 11:17:48;;;;;;;;;2.00;2.00;;;;;28.74;50.69;100891.53;5106836;27;45315;-82
2023/08/15 11:20:14;;;;;;;;;3.75;2.00;;;;;28.66;51.23;100893.84;5091252;27;45437;-81
2023/08/15 11:22:40;;;;;;;;;2.00;2.00;;;;;28.78;51.34;100887.66;5087763;27;44997;-82
2023/08/15 11:25:08;;;;;;;;;3.00;2.25;;;;;28.95;50.53;100883.91;5104545;27;44971;-81
2023/08/15 11:28:26;;;;;;;;;0.50;0.50;;;;;29.35;49.94;100886.97;5107102;27;44822;-81
2023/08/15 11:30:52;;;;;;;;;1.50;1.50;;;;;29.37;50.32;100893.25;5088450;27;44879;-81
2023/08/15 11:33:17;;;;;;;;;3.25;1.25;;;;;29.48;50.05;100895.31;5072333;27;46859;-82
2023/08/15 11:35:49;;;;;;;;;1.75;1.50;;;;;29.54;49.27;100897.66;5107847;27;45440;-82
2023/08/15 11:38:21;;;;;;;;;0.50;0.50;;;;;29.37;49.45;100895.97;5101077;27;45385;-82
2023/08/15 11:41:27;;;;;;;;;1.25;1.25;;;;;29.37;49.80;100895.09;5086399;27;44900;-82
2023/08/15 11:43:52;;;;;;;;;1.00;1.00;;;;;29.17;50.04;100899.97;5086783;28;45383;-81
2023/08/15 11:46:18;;;;;;;;;3.00;1.00;;;;;29.06;49.87;100896.94;5085458;28;44722;-82
2023/08/15 11:48:45;;;;;;;;;1.25;1.25;;;;;28.99;50.38;100912.00;5082908;27;45327;-83